sensor_id;sensor_type;location;lat;lon;timestamp;P1;durP1;ratioP1;P2;durP2;ratioP2
3543;SDS011;1786;52.870;9.578;2022-08-19T00:01:58;6.10;;;5.60;;
3543;SDS011;1786;52.870;9.578;2022-08-19T00:04:27;7.80;;;5.77;;
3543;SDS011;1786;52.870;9.578;2022-08-19T00:06:57;7.37;;;6.73;;
3543;SDS011;1786;52.870;9.578;2022-08-19T00:09:24;6.83;;;5.77;;
3543;SDS011;1786;52.870;9.578;2022-08-19T00:11:50;6.87;;;6.33;;
3543;SDS011;1786;52.870;9.578;2022-08-19T00:14:18;10.73;;;7.27;;
3543;SDS011;1786;52.870;9.578;2022-08-19T00:16:47;7.73;;;6.97;;
3543;SDS011;1786;52.870;9.578;2022-08-19T00:19:15;6.97;;;6.37;;
3543;SDS011;1786;52.870;9.578;2022-08-19T00:21:42;8.10;;;7.27;;
3543;SDS011;1786;52.870;9.578;2022-08-19T00:24:11;10.20;;;6.40;;
3543;SDS011;1786;52.870;9.578;2022-08-19T00:26:39;8.37;;;6.60;;
3543;SDS011;1786;52.870;9.578;2022-08-19T00:29:08;9.23;;;6.80;;
3543;SDS011;1786;52.870;9.578;2022-08-19T00:31:36;8.23;;;6.40;;
3543;SDS011;1786;52.870;9.578;2022-08-19T00:34:03;6.87;;;6.23;;
3543;SDS011;1786;52.870;9.578;2022-08-19T00:36:30;10.07;;;6.50;;
3543;SDS011;1786;52.870;9.578;2022-08-19T00:38:59;7.47;;;6.70;;
3543;SDS011;1786;52.870;9.578;2022-08-19T00:41:27;8.37;;;7.50;;
3543;SDS011;1786;52.870;9.578;2022-08-19T00:43:56;7.77;;;6.87;;
3543;SDS011;1786;52.870;9.578;2022-08-19T00:46:24;8.40;;;7.50;;
3543;SDS011;1786;52.870;9.578;2022-08-19T00:48:51;8.47;;;7.77;;
3543;SDS011;1786;52.870;9.578;2022-08-19T00:51:18;10.80;;;8.77;;
3543;SDS011;1786;52.870;9.578;2022-08-19T00:53:45;10.23;;;8.70;;
3543;SDS011;1786;52.870;9.578;2022-08-19T00:56:12;9.83;;;7.83;;
3543;SDS011;1786;52.870;9.578;2022-08-19T00:58:38;10.67;;;8.00;;
3543;SDS011;1786;52.870;9.578;2022-08-19T01:01:06;9.63;;;7.60;;
3543;SDS011;1786;52.870;9.578;2022-08-19T01:03:34;8.50;;;7.70;;
3543;SDS011;1786;52.870;9.578;2022-08-19T01:06:21;8.53;;;7.67;;
3543;SDS011;1786;52.870;9.578;2022-08-19T01:08:47;10.10;;;7.80;;
3543;SDS011;1786;52.870;9.578;2022-08-19T01:11:15;9.20;;;8.10;;
3543;SDS011;1786;52.870;9.578;2022-08-19T01:13:43;9.30;;;8.50;;
3543;SDS011;1786;52.870;9.578;2022-08-19T01:16:16;14.77;;;9.07;;
3543;SDS011;1786;52.870;9.578;2022-08-19T01:18:46;10.63;;;8.87;;
3543;SDS011;1786;52.870;9.578;2022-08-19T01:21:18;9.90;;;8.00;;
3543;SDS011;1786;52.870;9.578;2022-08-19T01:23:50;11.33;;;7.80;;
3543;SDS011;1786;52.870;9.578;2022-08-19T01:26:18;11.93;;;9.00;;
3543;SDS011;1786;52.870;9.578;2022-08-19T01:28:51;11.47;;;8.77;;
3543;SDS011;1786;52.870;9.578;2022-08-19T01:31:26;9.80;;;8.87;;
3543;SDS011;1786;52.870;9.578;2022-08-19T01:33:58;12.10;;;10.90;;
3543;SDS011;1786;52.870;9.578;2022-08-19T01:36:33;11.23;;;9.87;;
3543;SDS011;1786;52.870;9.578;2022-08-19T01:39:03;12.30;;;9.53;;
3543;SDS011;1786;52.870;9.578;2022-08-19T01:41:32;10.80;;;9.73;;
3543;SDS011;1786;52.870;9.578;2022-08-19T01:43:59;16.03;;;10.43;;
3543;SDS011;1786;52.870;9.578;2022-08-19T01:46:44;11.00;;;9.80;;
3543;SDS011;1786;52.870;9.578;2022-08-19T01:49:12;12.00;;;8.80;;
3543;SDS011;1786;52.870;9.578;2022-08-19T01:51:39;10.80;;;8.70;;
3543;SDS011;1786;52.870;9.578;2022-08-19T01:54:06;14.30;;;9.33;;
3543;SDS011;1786;52.870;9.578;2022-08-19T01:56:34;10.63;;;8.00;;
3543;SDS011;1786;52.870;9.578;2022-08-19T01:59:03;9.33;;;8.40;;
3543;SDS011;1786;52.870;9.578;2022-08-19T02:01:34;10.10;;;8.77;;
3543;SDS011;1786;52.870;9.578;2022-08-19T02:04:01;11.43;;;8.77;;
3543;SDS011;1786;52.870;9.578;2022-08-19T02:06:28;8.10;;;6.83;;
3543;SDS011;1786;52.870;9.578;2022-08-19T02:08:56;10.43;;;7.97;;
3543;SDS011;1786;52.870;9.578;2022-08-19T02:11:24;10.63;;;8.53;;
3543;SDS011;1786;52.870;9.578;2022-08-19T02:13:54;9.37;;;7.20;;
3543;SDS011;1786;52.870;9.578;2022-08-19T02:16:21;17.93;;;7.63;;
3543;SDS011;1786;52.870;9.578;2022-08-19T02:18:48;11.13;;;7.33;;
3543;SDS011;1786;52.870;9.578;2022-08-19T02:21:19;8.10;;;7.03;;
3543;SDS011;1786;52.870;9.578;2022-08-19T02:23:47;10.33;;;6.40;;
3543;SDS011;1786;52.870;9.578;2022-08-19T02:26:14;9.13;;;7.20;;
3543;SDS011;1786;52.870;9.578;2022-08-19T02:28:44;8.67;;;6.60;;
3543;SDS011;1786;52.870;9.578;2022-08-19T02:31:12;10.93;;;6.10;;
3543;SDS011;1786;52.870;9.578;2022-08-19T02:33:44;6.53;;;5.90;;
3543;SDS011;1786;52.870;9.578;2022-08-19T02:36:12;10.40;;;6.23;;
3543;SDS011;1786;52.870;9.578;2022-08-19T02:38:42;7.20;;;5.90;;
3543;SDS011;1786;52.870;9.578;2022-08-19T02:41:22;6.90;;;6.30;;
3543;SDS011;1786;52.870;9.578;2022-08-19T02:43:54;8.47;;;5.60;;
3543;SDS011;1786;52.870;9.578;2022-08-19T02:46:42;5.73;;;5.13;;
3543;SDS011;1786;52.870;9.578;2022-08-19T02:49:16;10.23;;;5.13;;
3543;SDS011;1786;52.870;9.578;2022-08-19T02:51:44;8.67;;;6.03;;
3543;SDS011;1786;52.870;9.578;2022-08-19T02:54:12;6.67;;;6.10;;
3543;SDS011;1786;52.870;9.578;2022-08-19T02:56:40;6.87;;;6.30;;
3543;SDS011;1786;52.870;9.578;2022-08-19T02:59:08;10.27;;;6.93;;
3543;SDS011;1786;52.870;9.578;2022-08-19T03:01:37;8.63;;;6.60;;
3543;SDS011;1786;52.870;9.578;2022-08-19T03:04:06;8.50;;;6.03;;
3543;SDS011;1786;52.870;9.578;2022-08-19T03:06:38;6.43;;;5.80;;
3543;SDS011;1786;52.870;9.578;2022-08-19T03:09:06;10.17;;;5.70;;
3543;SDS011;1786;52.870;9.578;2022-08-19T03:11:34;7.10;;;5.30;;
3543;SDS011;1786;52.870;9.578;2022-08-19T03:14:01;7.03;;;5.83;;
3543;SDS011;1786;52.870;9.578;2022-08-19T03:16:31;6.17;;;5.27;;
3543;SDS011;1786;52.870;9.578;2022-08-19T03:19:05;9.57;;;6.17;;
3543;SDS011;1786;52.870;9.578;2022-08-19T03:21:33;8.10;;;6.23;;
3543;SDS011;1786;52.870;9.578;2022-08-19T03:24:02;7.00;;;6.13;;
3543;SDS011;1786;52.870;9.578;2022-08-19T03:26:32;7.30;;;5.60;;
3543;SDS011;1786;52.870;9.578;2022-08-19T03:29:03;6.83;;;5.60;;
3543;SDS011;1786;52.870;9.578;2022-08-19T03:31:31;6.43;;;5.83;;
3543;SDS011;1786;52.870;9.578;2022-08-19T03:34:18;8.93;;;5.70;;
3543;SDS011;1786;52.870;9.578;2022-08-19T03:36:47;6.23;;;4.90;;
3543;SDS011;1786;52.870;9.578;2022-08-19T03:39:15;8.07;;;5.50;;
3543;SDS011;1786;52.870;9.578;2022-08-19T03:41:43;7.83;;;5.00;;
3543;SDS011;1786;52.870;9.578;2022-08-19T03:44:13;7.50;;;5.70;;
3543;SDS011;1786;52.870;9.578;2022-08-19T03:46:45;6.17;;;5.57;;
3543;SDS011;1786;52.870;9.578;2022-08-19T03:49:14;5.90;;;5.50;;
3543;SDS011;1786;52.870;9.578;2022-08-19T03:51:43;12.83;;;5.80;;
3543;SDS011;1786;52.870;9.578;2022-08-19T03:54:12;6.07;;;5.47;;
3543;SDS011;1786;52.870;9.578;2022-08-19T03:56:42;8.43;;;5.50;;
3543;SDS011;1786;52.870;9.578;2022-08-19T03:59:13;9.43;;;5.43;;
3543;SDS011;1786;52.870;9.578;2022-08-19T04:01:53;10.23;;;5.53;;
3543;SDS011;1786;52.870;9.578;2022-08-19T04:04:22;11.60;;;6.27;;
3543;SDS011;1786;52.870;9.578;2022-08-19T04:06:50;7.73;;;5.37;;
3543;SDS011;1786;52.870;9.578;2022-08-19T04:09:18;6.17;;;4.90;;
3543;SDS011;1786;52.870;9.578;2022-08-19T04:11:47;6.40;;;5.20;;
3543;SDS011;1786;52.870;9.578;2022-08-19T04:14:20;6.73;;;6.13;;
3543;SDS011;1786;52.870;9.578;2022-08-19T04:16:50;12.30;;;5.97;;
3543;SDS011;1786;52.870;9.578;2022-08-19T04:19:18;10.40;;;6.60;;
3543;SDS011;1786;52.870;9.578;2022-08-19T04:21:46;7.33;;;5.87;;
3543;SDS011;1786;52.870;9.578;2022-08-19T04:24:16;6.87;;;6.10;;
3543;SDS011;1786;52.870;9.578;2022-08-19T04:26:43;5.97;;;5.47;;
3543;SDS011;1786;52.870;9.578;2022-08-19T04:29:12;6.50;;;5.90;;
3543;SDS011;1786;52.870;9.578;2022-08-19T04:31:41;11.40;;;6.13;;
3543;SDS011;1786;52.870;9.578;2022-08-19T04:34:11;8.17;;;5.87;;
3543;SDS011;1786;52.870;9.578;2022-08-19T04:36:40;12.17;;;5.57;;
3543;SDS011;1786;52.870;9.578;2022-08-19T04:39:10;7.17;;;5.90;;
3543;SDS011;1786;52.870;9.578;2022-08-19T04:41:40;9.10;;;5.77;;
3543;SDS011;1786;52.870;9.578;2022-08-19T04:44:25;6.47;;;5.87;;
3543;SDS011;1786;52.870;9.578;2022-08-19T04:46:52;6.33;;;5.07;;
3543;SDS011;1786;52.870;9.578;2022-08-19T04:49:20;5.90;;;5.37;;
3543;SDS011;1786;52.870;9.578;2022-08-19T04:51:52;7.97;;;6.90;;
3543;SDS011;1786;52.870;9.578;2022-08-19T04:54:21;6.00;;;5.40;;
3543;SDS011;1786;52.870;9.578;2022-08-19T04:57:05;6.83;;;5.80;;
3543;SDS011;1786;52.870;9.578;2022-08-19T04:59:35;16.47;;;5.40;;
3543;SDS011;1786;52.870;9.578;2022-08-19T05:02:03;5.10;;;4.70;;
3543;SDS011;1786;52.870;9.578;2022-08-19T05:04:32;6.00;;;4.97;;
3543;SDS011;1786;52.870;9.578;2022-08-19T05:07:00;5.60;;;4.43;;
3543;SDS011;1786;52.870;9.578;2022-08-19T05:09:30;4.63;;;4.23;;
3543;SDS011;1786;52.870;9.578;2022-08-19T05:12:17;5.80;;;4.10;;
3543;SDS011;1786;52.870;9.578;2022-08-19T05:14:45;4.70;;;4.30;;
3543;SDS011;1786;52.870;9.578;2022-08-19T05:17:14;5.70;;;3.83;;
3543;SDS011;1786;52.870;9.578;2022-08-19T05:20:01;6.93;;;4.20;;
3543;SDS011;1786;52.870;9.578;2022-08-19T05:22:47;5.20;;;4.70;;
3543;SDS011;1786;52.870;9.578;2022-08-19T05:25:16;6.83;;;4.67;;
3543;SDS011;1786;52.870;9.578;2022-08-19T05:27:46;7.07;;;3.93;;
3543;SDS011;1786;52.870;9.578;2022-08-19T05:30:14;5.40;;;4.80;;
3543;SDS011;1786;52.870;9.578;2022-08-19T05:32:41;7.67;;;5.20;;
3543;SDS011;1786;52.870;9.578;2022-08-19T05:35:08;6.23;;;5.57;;
3543;SDS011;1786;52.870;9.578;2022-08-19T05:37:35;5.80;;;5.27;;
3543;SDS011;1786;52.870;9.578;2022-08-19T05:40:03;6.50;;;5.17;;
3543;SDS011;1786;52.870;9.578;2022-08-19T05:42:30;5.87;;;5.40;;
3543;SDS011;1786;52.870;9.578;2022-08-19T05:44:57;6.13;;;5.53;;
3543;SDS011;1786;52.870;9.578;2022-08-19T05:47:24;6.97;;;6.27;;
3543;SDS011;1786;52.870;9.578;2022-08-19T05:49:50;6.63;;;5.90;;
3543;SDS011;1786;52.870;9.578;2022-08-19T05:52:18;7.13;;;5.83;;
3543;SDS011;1786;52.870;9.578;2022-08-19T05:54:51;6.30;;;5.80;;
3543;SDS011;1786;52.870;9.578;2022-08-19T05:57:21;10.23;;;7.13;;
3543;SDS011;1786;52.870;9.578;2022-08-19T05:59:49;10.60;;;6.20;;
3543;SDS011;1786;52.870;9.578;2022-08-19T06:02:24;7.00;;;5.93;;
3543;SDS011;1786;52.870;9.578;2022-08-19T06:04:54;7.30;;;6.13;;
3543;SDS011;1786;52.870;9.578;2022-08-19T06:07:21;6.13;;;5.47;;
3543;SDS011;1786;52.870;9.578;2022-08-19T06:09:48;7.13;;;6.20;;
3543;SDS011;1786;52.870;9.578;2022-08-19T06:12:27;7.40;;;6.70;;
3543;SDS011;1786;52.870;9.578;2022-08-19T06:15:02;7.93;;;6.20;;
3543;SDS011;1786;52.870;9.578;2022-08-19T06:17:31;8.03;;;7.23;;
3543;SDS011;1786;52.870;9.578;2022-08-19T06:20:05;8.30;;;6.23;;
3543;SDS011;1786;52.870;9.578;2022-08-19T06:22:37;8.97;;;7.00;;
3543;SDS011;1786;52.870;9.578;2022-08-19T06:25:05;7.00;;;6.40;;
3543;SDS011;1786;52.870;9.578;2022-08-19T06:27:32;8.17;;;6.87;;
3543;SDS011;1786;52.870;9.578;2022-08-19T06:29:59;8.37;;;7.20;;
3543;SDS011;1786;52.870;9.578;2022-08-19T06:32:27;9.43;;;6.50;;
3543;SDS011;1786;52.870;9.578;2022-08-19T06:34:53;7.57;;;6.73;;
3543;SDS011;1786;52.870;9.578;2022-08-19T06:37:21;6.93;;;6.20;;
3543;SDS011;1786;52.870;9.578;2022-08-19T06:39:48;14.00;;;6.23;;
3543;SDS011;1786;52.870;9.578;2022-08-19T06:42:15;6.60;;;5.90;;
3543;SDS011;1786;52.870;9.578;2022-08-19T06:44:49;6.87;;;6.20;;
3543;SDS011;1786;52.870;9.578;2022-08-19T06:47:20;6.00;;;5.40;;
3543;SDS011;1786;52.870;9.578;2022-08-19T06:49:55;7.33;;;6.60;;
3543;SDS011;1786;52.870;9.578;2022-08-19T06:52:31;9.23;;;6.57;;
3543;SDS011;1786;52.870;9.578;2022-08-19T06:55:02;7.47;;;5.63;;
3543;SDS011;1786;52.870;9.578;2022-08-19T06:57:32;6.73;;;6.00;;
3543;SDS011;1786;52.870;9.578;2022-08-19T07:00:02;7.57;;;6.80;;
3543;SDS011;1786;52.870;9.578;2022-08-19T07:02:29;6.10;;;5.60;;
3543;SDS011;1786;52.870;9.578;2022-08-19T07:04:56;6.07;;;5.67;;
3543;SDS011;1786;52.870;9.578;2022-08-19T07:07:31;5.90;;;5.50;;
3543;SDS011;1786;52.870;9.578;2022-08-19T07:09:58;11.60;;;5.90;;
3543;SDS011;1786;52.870;9.578;2022-08-19T07:12:29;8.27;;;5.17;;
3543;SDS011;1786;52.870;9.578;2022-08-19T07:15:00;7.50;;;6.17;;
3543;SDS011;1786;52.870;9.578;2022-08-19T07:17:28;7.17;;;5.40;;
3543;SDS011;1786;52.870;9.578;2022-08-19T07:19:56;6.63;;;6.03;;
3543;SDS011;1786;52.870;9.578;2022-08-19T07:22:30;8.53;;;5.67;;
3543;SDS011;1786;52.870;9.578;2022-08-19T07:24:59;8.10;;;6.07;;
3543;SDS011;1786;52.870;9.578;2022-08-19T07:27:26;8.03;;;5.97;;
3543;SDS011;1786;52.870;9.578;2022-08-19T07:29:52;5.83;;;5.33;;
3543;SDS011;1786;52.870;9.578;2022-08-19T07:32:25;5.93;;;5.47;;
3543;SDS011;1786;52.870;9.578;2022-08-19T07:34:57;7.10;;;4.90;;
3543;SDS011;1786;52.870;9.578;2022-08-19T07:37:26;9.03;;;5.10;;
3543;SDS011;1786;52.870;9.578;2022-08-19T07:39:59;8.10;;;5.73;;
3543;SDS011;1786;52.870;9.578;2022-08-19T07:42:26;4.93;;;4.43;;
3543;SDS011;1786;52.870;9.578;2022-08-19T07:44:55;9.40;;;6.17;;
3543;SDS011;1786;52.870;9.578;2022-08-19T07:47:22;7.20;;;5.43;;
3543;SDS011;1786;52.870;9.578;2022-08-19T07:50:10;6.93;;;6.20;;
3543;SDS011;1786;52.870;9.578;2022-08-19T07:52:38;9.80;;;6.40;;
3543;SDS011;1786;52.870;9.578;2022-08-19T07:55:06;7.20;;;5.50;;
3543;SDS011;1786;52.870;9.578;2022-08-19T07:57:55;9.20;;;5.50;;
3543;SDS011;1786;52.870;9.578;2022-08-19T08:00:22;9.67;;;6.10;;
3543;SDS011;1786;52.870;9.578;2022-08-19T08:02:50;6.07;;;5.10;;
3543;SDS011;1786;52.870;9.578;2022-08-19T08:05:20;6.90;;;6.03;;
3543;SDS011;1786;52.870;9.578;2022-08-19T08:08:10;5.70;;;5.20;;
3543;SDS011;1786;52.870;9.578;2022-08-19T08:10:57;10.37;;;5.00;;
3543;SDS011;1786;52.870;9.578;2022-08-19T08:13:24;6.07;;;4.70;;
3543;SDS011;1786;52.870;9.578;2022-08-19T08:15:51;5.23;;;4.93;;
3543;SDS011;1786;52.870;9.578;2022-08-19T08:18:22;7.77;;;6.00;;
3543;SDS011;1786;52.870;9.578;2022-08-19T08:20:55;6.17;;;5.83;;
3543;SDS011;1786;52.870;9.578;2022-08-19T08:23:23;7.73;;;5.73;;
3543;SDS011;1786;52.870;9.578;2022-08-19T08:25:53;5.63;;;5.20;;
3543;SDS011;1786;52.870;9.578;2022-08-19T08:28:21;5.27;;;4.70;;
3543;SDS011;1786;52.870;9.578;2022-08-19T08:30:49;6.20;;;5.63;;
3543;SDS011;1786;52.870;9.578;2022-08-19T08:33:18;5.80;;;5.30;;
3543;SDS011;1786;52.870;9.578;2022-08-19T08:36:07;5.83;;;5.33;;
3543;SDS011;1786;52.870;9.578;2022-08-19T08:38:34;5.17;;;4.93;;
3543;SDS011;1786;52.870;9.578;2022-08-19T08:41:16;5.27;;;4.77;;
3543;SDS011;1786;52.870;9.578;2022-08-19T08:44:04;5.37;;;4.80;;
3543;SDS011;1786;52.870;9.578;2022-08-19T08:46:38;8.80;;;5.60;;
3543;SDS011;1786;52.870;9.578;2022-08-19T08:51:44;6.20;;;5.70;;
3543;SDS011;1786;52.870;9.578;2022-08-19T08:54:26;6.87;;;5.60;;
3543;SDS011;1786;52.870;9.578;2022-08-19T08:57:02;6.60;;;5.70;;
3543;SDS011;1786;52.870;9.578;2022-08-19T08:59:35;6.00;;;5.40;;
3543;SDS011;1786;52.870;9.578;2022-08-19T09:02:05;5.50;;;4.87;;
3543;SDS011;1786;52.870;9.578;2022-08-19T09:04:33;5.93;;;5.53;;
3543;SDS011;1786;52.870;9.578;2022-08-19T09:07:20;5.13;;;4.83;;
3543;SDS011;1786;52.870;9.578;2022-08-19T09:10:10;6.20;;;5.70;;
3543;SDS011;1786;52.870;9.578;2022-08-19T09:12:53;5.43;;;5.03;;
3543;SDS011;1786;52.870;9.578;2022-08-19T09:15:44;8.13;;;5.73;;
3543;SDS011;1786;52.870;9.578;2022-08-19T09:18:14;5.90;;;4.90;;
3543;SDS011;1786;52.870;9.578;2022-08-19T09:20:44;6.73;;;6.13;;
3543;SDS011;1786;52.870;9.578;2022-08-19T09:23:13;5.33;;;4.90;;
3543;SDS011;1786;52.870;9.578;2022-08-19T09:25:40;5.40;;;5.07;;
3543;SDS011;1786;52.870;9.578;2022-08-19T09:28:07;6.60;;;5.87;;
3543;SDS011;1786;52.870;9.578;2022-08-19T09:30:47;7.03;;;6.33;;
3543;SDS011;1786;52.870;9.578;2022-08-19T09:33:14;6.20;;;5.80;;
3543;SDS011;1786;52.870;9.578;2022-08-19T09:35:41;6.10;;;5.70;;
3543;SDS011;1786;52.870;9.578;2022-08-19T09:38:15;7.00;;;6.33;;
3543;SDS011;1786;52.870;9.578;2022-08-19T09:40:42;6.50;;;5.90;;
3543;SDS011;1786;52.870;9.578;2022-08-19T09:43:08;6.03;;;5.53;;
3543;SDS011;1786;52.870;9.578;2022-08-19T09:45:38;5.53;;;5.13;;
3543;SDS011;1786;52.870;9.578;2022-08-19T09:48:05;5.50;;;5.20;;
3543;SDS011;1786;52.870;9.578;2022-08-19T09:50:33;6.30;;;5.80;;
3543;SDS011;1786;52.870;9.578;2022-08-19T09:53:01;6.83;;;5.93;;
3543;SDS011;1786;52.870;9.578;2022-08-19T09:55:28;6.10;;;5.60;;
3543;SDS011;1786;52.870;9.578;2022-08-19T09:57:57;5.60;;;5.10;;
3543;SDS011;1786;52.870;9.578;2022-08-19T10:00:25;5.53;;;5.13;;
3543;SDS011;1786;52.870;9.578;2022-08-19T10:02:52;5.17;;;4.87;;
3543;SDS011;1786;52.870;9.578;2022-08-19T10:05:19;4.40;;;4.10;;
3543;SDS011;1786;52.870;9.578;2022-08-19T10:08:08;4.20;;;3.80;;
3543;SDS011;1786;52.870;9.578;2022-08-19T10:10:39;5.27;;;4.80;;
3543;SDS011;1786;52.870;9.578;2022-08-19T10:13:13;4.97;;;4.57;;
3543;SDS011;1786;52.870;9.578;2022-08-19T10:15:41;4.30;;;4.00;;
3543;SDS011;1786;52.870;9.578;2022-08-19T10:18:14;5.90;;;3.93;;
3543;SDS011;1786;52.870;9.578;2022-08-19T10:20:45;3.77;;;3.57;;
3543;SDS011;1786;52.870;9.578;2022-08-19T10:23:18;4.43;;;4.13;;
3543;SDS011;1786;52.870;9.578;2022-08-19T10:25:47;3.70;;;3.60;;
3543;SDS011;1786;52.870;9.578;2022-08-19T10:28:14;3.60;;;3.40;;
3543;SDS011;1786;52.870;9.578;2022-08-19T10:30:45;7.03;;;3.33;;
3543;SDS011;1786;52.870;9.578;2022-08-19T10:33:12;3.20;;;3.10;;
3543;SDS011;1786;52.870;9.578;2022-08-19T10:35:39;3.40;;;3.20;;
3543;SDS011;1786;52.870;9.578;2022-08-19T10:38:23;4.40;;;4.05;;
3543;SDS011;1786;52.870;9.578;2022-08-19T10:40:57;2.92;;;2.83;;
3543;SDS011;1786;52.870;9.578;2022-08-19T10:43:24;3.83;;;3.55;;
3543;SDS011;1786;52.870;9.578;2022-08-19T10:45:51;3.35;;;3.10;;
3543;SDS011;1786;52.870;9.578;2022-08-19T10:48:21;2.90;;;2.70;;
3543;SDS011;1786;52.870;9.578;2022-08-19T10:50:48;4.80;;;3.20;;
3543;SDS011;1786;52.870;9.578;2022-08-19T10:53:33;2.97;;;2.88;;
3543;SDS011;1786;52.870;9.578;2022-08-19T10:56:01;7.20;;;3.20;;
3543;SDS011;1786;52.870;9.578;2022-08-19T10:58:46;3.85;;;3.75;;
3543;SDS011;1786;52.870;9.578;2022-08-19T11:01:14;3.38;;;3.08;;
3543;SDS011;1786;52.870;9.578;2022-08-19T11:03:41;3.35;;;3.25;;
3543;SDS011;1786;52.870;9.578;2022-08-19T11:06:16;3.60;;;3.45;;
3543;SDS011;1786;52.870;9.578;2022-08-19T11:08:43;3.13;;;3.03;;
3543;SDS011;1786;52.870;9.578;2022-08-19T11:11:11;3.17;;;2.97;;
3543;SDS011;1786;52.870;9.578;2022-08-19T11:13:39;2.75;;;2.50;;
3543;SDS011;1786;52.870;9.578;2022-08-19T11:16:09;2.70;;;2.60;;
3543;SDS011;1786;52.870;9.578;2022-08-19T11:18:40;3.13;;;2.90;;
3543;SDS011;1786;52.870;9.578;2022-08-19T11:21:11;2.72;;;2.60;;
3543;SDS011;1786;52.870;9.578;2022-08-19T11:23:43;3.40;;;3.20;;
3543;SDS011;1786;52.870;9.578;2022-08-19T11:26:10;3.20;;;2.88;;
3543;SDS011;1786;52.870;9.578;2022-08-19T11:28:37;2.70;;;2.60;;
3543;SDS011;1786;52.870;9.578;2022-08-19T11:31:03;3.78;;;3.47;;
3543;SDS011;1786;52.870;9.578;2022-08-19T11:33:35;3.42;;;3.13;;
3543;SDS011;1786;52.870;9.578;2022-08-19T11:36:02;5.60;;;3.55;;
3543;SDS011;1786;52.870;9.578;2022-08-19T11:38:30;2.67;;;2.58;;
3543;SDS011;1786;52.870;9.578;2022-08-19T11:40:58;2.95;;;2.60;;
3543;SDS011;1786;52.870;9.578;2022-08-19T11:43:26;3.20;;;3.00;;
3543;SDS011;1786;52.870;9.578;2022-08-19T11:45:54;2.90;;;2.78;;
3543;SDS011;1786;52.870;9.578;2022-08-19T11:48:22;2.50;;;2.30;;
3543;SDS011;1786;52.870;9.578;2022-08-19T11:50:51;2.90;;;2.80;;
3543;SDS011;1786;52.870;9.578;2022-08-19T11:53:19;3.13;;;3.03;;
3543;SDS011;1786;52.870;9.578;2022-08-19T11:55:47;8.93;;;3.15;;
3543;SDS011;1786;52.870;9.578;2022-08-19T11:58:15;3.05;;;2.95;;
3543;SDS011;1786;52.870;9.578;2022-08-19T12:00:45;2.50;;;2.30;;
3543;SDS011;1786;52.870;9.578;2022-08-19T12:03:12;3.80;;;2.70;;
3543;SDS011;1786;52.870;9.578;2022-08-19T12:05:39;2.85;;;2.75;;
3543;SDS011;1786;52.870;9.578;2022-08-19T12:08:07;2.45;;;2.35;;
3543;SDS011;1786;52.870;9.578;2022-08-19T12:10:34;2.42;;;2.42;;
3543;SDS011;1786;52.870;9.578;2022-08-19T12:13:02;3.30;;;3.03;;
3543;SDS011;1786;52.870;9.578;2022-08-19T12:15:29;2.63;;;2.47;;
3543;SDS011;1786;52.870;9.578;2022-08-19T12:18:03;3.30;;;3.03;;
3543;SDS011;1786;52.870;9.578;2022-08-19T12:20:30;2.83;;;2.67;;
3543;SDS011;1786;52.870;9.578;2022-08-19T12:23:02;2.75;;;2.65;;
3543;SDS011;1786;52.870;9.578;2022-08-19T12:25:29;3.13;;;2.95;;
3543;SDS011;1786;52.870;9.578;2022-08-19T12:27:57;3.40;;;3.20;;
3543;SDS011;1786;52.870;9.578;2022-08-19T12:30:24;3.25;;;3.15;;
3543;SDS011;1786;52.870;9.578;2022-08-19T12:32:51;3.30;;;3.10;;
3543;SDS011;1786;52.870;9.578;2022-08-19T12:35:18;3.22;;;3.10;;
3543;SDS011;1786;52.870;9.578;2022-08-19T12:37:48;3.10;;;3.00;;
3543;SDS011;1786;52.870;9.578;2022-08-19T12:40:23;7.80;;;2.97;;
3543;SDS011;1786;52.870;9.578;2022-08-19T12:42:52;3.33;;;2.50;;
3543;SDS011;1786;52.870;9.578;2022-08-19T12:45:20;3.00;;;2.90;;
3543;SDS011;1786;52.870;9.578;2022-08-19T12:47:47;2.92;;;2.72;;
3543;SDS011;1786;52.870;9.578;2022-08-19T12:50:15;2.88;;;2.75;;
3543;SDS011;1786;52.870;9.578;2022-08-19T12:52:42;2.55;;;2.30;;
3543;SDS011;1786;52.870;9.578;2022-08-19T12:55:09;3.08;;;2.97;;
3543;SDS011;1786;52.870;9.578;2022-08-19T12:57:36;3.72;;;2.67;;
3543;SDS011;1786;52.870;9.578;2022-08-19T13:00:05;3.42;;;3.17;;
3543;SDS011;1786;52.870;9.578;2022-08-19T13:02:40;2.60;;;2.50;;
3543;SDS011;1786;52.870;9.578;2022-08-19T13:05:11;2.53;;;2.13;;
3543;SDS011;1786;52.870;9.578;2022-08-19T13:07:42;6.05;;;2.50;;
3543;SDS011;1786;52.870;9.578;2022-08-19T13:10:13;2.03;;;2.03;;
3543;SDS011;1786;52.870;9.578;2022-08-19T13:12:46;5.35;;;2.97;;
3543;SDS011;1786;52.870;9.578;2022-08-19T13:15:15;2.60;;;2.40;;
3543;SDS011;1786;52.870;9.578;2022-08-19T13:17:50;2.83;;;2.63;;
3543;SDS011;1786;52.870;9.578;2022-08-19T13:20:20;4.20;;;2.50;;
3543;SDS011;1786;52.870;9.578;2022-08-19T13:22:48;5.18;;;2.17;;
3543;SDS011;1786;52.870;9.578;2022-08-19T13:25:15;2.20;;;2.10;;
3543;SDS011;1786;52.870;9.578;2022-08-19T13:27:45;2.80;;;2.25;;
3543;SDS011;1786;52.870;9.578;2022-08-19T13:30:13;3.00;;;2.28;;
3543;SDS011;1786;52.870;9.578;2022-08-19T13:33:01;2.15;;;2.15;;
3543;SDS011;1786;52.870;9.578;2022-08-19T13:35:38;3.13;;;2.15;;
3543;SDS011;1786;52.870;9.578;2022-08-19T13:38:06;3.28;;;2.97;;
3543;SDS011;1786;52.870;9.578;2022-08-19T13:40:37;8.25;;;3.05;;
3543;SDS011;1786;52.870;9.578;2022-08-19T13:43:07;2.35;;;2.25;;
3543;SDS011;1786;52.870;9.578;2022-08-19T13:45:48;2.75;;;2.30;;
3543;SDS011;1786;52.870;9.578;2022-08-19T13:48:22;2.25;;;2.10;;
3543;SDS011;1786;52.870;9.578;2022-08-19T13:50:49;2.60;;;2.50;;
3543;SDS011;1786;52.870;9.578;2022-08-19T13:53:17;3.37;;;1.97;;
3543;SDS011;1786;52.870;9.578;2022-08-19T13:55:44;2.77;;;1.70;;
3543;SDS011;1786;52.870;9.578;2022-08-19T13:58:11;2.40;;;2.00;;
3543;SDS011;1786;52.870;9.578;2022-08-19T14:00:41;1.77;;;1.67;;
3543;SDS011;1786;52.870;9.578;2022-08-19T14:03:10;1.90;;;1.77;;
3543;SDS011;1786;52.870;9.578;2022-08-19T14:05:37;1.67;;;1.57;;
3543;SDS011;1786;52.870;9.578;2022-08-19T14:08:05;1.75;;;1.75;;
3543;SDS011;1786;52.870;9.578;2022-08-19T14:10:32;2.00;;;1.90;;
3543;SDS011;1786;52.870;9.578;2022-08-19T14:13:00;2.50;;;2.45;;
3543;SDS011;1786;52.870;9.578;2022-08-19T14:15:29;6.18;;;2.10;;
3543;SDS011;1786;52.870;9.578;2022-08-19T14:17:56;1.80;;;1.80;;
3543;SDS011;1786;52.870;9.578;2022-08-19T14:20:23;2.20;;;2.10;;
3543;SDS011;1786;52.870;9.578;2022-08-19T14:22:52;2.30;;;2.13;;
3543;SDS011;1786;52.870;9.578;2022-08-19T14:25:21;2.10;;;2.00;;
3543;SDS011;1786;52.870;9.578;2022-08-19T14:27:50;2.30;;;1.65;;
3543;SDS011;1786;52.870;9.578;2022-08-19T14:30:21;4.05;;;1.73;;
3543;SDS011;1786;52.870;9.578;2022-08-19T14:32:51;2.55;;;1.80;;
3543;SDS011;1786;52.870;9.578;2022-08-19T14:35:17;1.60;;;1.60;;
3543;SDS011;1786;52.870;9.578;2022-08-19T14:37:44;3.08;;;2.10;;
3543;SDS011;1786;52.870;9.578;2022-08-19T14:40:14;10.77;;;2.67;;
3543;SDS011;1786;52.870;9.578;2022-08-19T14:42:43;7.50;;;2.70;;
3543;SDS011;1786;52.870;9.578;2022-08-19T14:45:11;3.88;;;2.53;;
3543;SDS011;1786;52.870;9.578;2022-08-19T14:47:38;2.40;;;2.30;;
3543;SDS011;1786;52.870;9.578;2022-08-19T14:50:07;4.10;;;2.87;;
3543;SDS011;1786;52.870;9.578;2022-08-19T14:52:43;2.10;;;2.00;;
3543;SDS011;1786;52.870;9.578;2022-08-19T14:55:10;2.80;;;2.57;;
3543;SDS011;1786;52.870;9.578;2022-08-19T14:57:36;2.27;;;2.17;;
3543;SDS011;1786;52.870;9.578;2022-08-19T15:00:03;2.00;;;1.90;;
3543;SDS011;1786;52.870;9.578;2022-08-19T15:02:30;2.30;;;2.20;;
3543;SDS011;1786;52.870;9.578;2022-08-19T15:05:01;1.55;;;1.45;;
3543;SDS011;1786;52.870;9.578;2022-08-19T15:07:28;3.07;;;2.00;;
3543;SDS011;1786;52.870;9.578;2022-08-19T15:09:55;1.90;;;1.80;;
3543;SDS011;1786;52.870;9.578;2022-08-19T15:12:22;1.97;;;1.87;;
3543;SDS011;1786;52.870;9.578;2022-08-19T15:14:50;3.07;;;1.53;;
3543;SDS011;1786;52.870;9.578;2022-08-19T15:17:22;1.70;;;1.70;;
3543;SDS011;1786;52.870;9.578;2022-08-19T15:20:10;2.57;;;1.70;;
3543;SDS011;1786;52.870;9.578;2022-08-19T15:22:38;1.87;;;1.60;;
3543;SDS011;1786;52.870;9.578;2022-08-19T15:25:06;2.17;;;2.00;;
3543;SDS011;1786;52.870;9.578;2022-08-19T15:27:37;3.80;;;2.07;;
3543;SDS011;1786;52.870;9.578;2022-08-19T15:30:06;1.80;;;1.80;;
3543;SDS011;1786;52.870;9.578;2022-08-19T15:32:35;2.20;;;2.00;;
3543;SDS011;1786;52.870;9.578;2022-08-19T15:35:03;2.10;;;1.87;;